Data for 02/01/2009

Time Sea-Level Adjusted Pressure Absolute Pressure Temperature Relative Humidity Dew Point   
(mb) (inHg) (mb) (inHg) (C) (F) (%) (C) (F)
00:05 1020 30.12 849 25.07 -4.7 23.6 47 -14.3 6.3
00:10 1020 30.12 849 25.07 -4.7 23.6 48 -14.1 6.6
00:15 1020 30.12 849 25.07 -4.9 23.2 49 -14.1 6.6
00:20 1020 30.12 849 25.07 -5.2 22.6 50 -14 6.8
00:25 1020 30.12 849 25.07 -5.8 21.5 51 -14.4 6.1
00:30 1020 30.12 849 25.07 -5.7 21.7 51 -14.4 6
00:35 1020 30.12 849 25.07 -5.4 22.4 48 -14.6 5.7
00:40 1020 30.12 849 25.07 -5 23 48 -14.4 6.1
00:45 1020 30.12 849 25.07 -5 23 48 -14.5 6
00:50 1020 30.12 849 25.07 -5.3 22.6 49 -14.5 5.9
00:55 1020 30.12 850 25.1 -5.5 22.1 49 -14.5 5.9
01:00 1020 30.12 850 25.1 -5.8 21.6 51 -14.4 6
01:05 1020 30.12 850 25.1 -6.5 20.4 54 -14.4 6.2
01:10 1021 30.15 850 25.1 -6.9 19.5 53 -14.9 5.2
01:15 1021 30.15 850 25.1 -6.4 20.5 51 -14.9 5.2
01:20 1021 30.15 850 25.1 -6.1 21 51 -14.6 5.8
01:25 1021 30.15 850 25.1 -6.2 20.8 53 -14.4 6.1
01:30 1021 30.15 850 25.1 -6.4 20.5 52 -14.7 5.6
01:35 1021 30.15 850 25.1 -6.5 20.3 55 -14.2 6.5
01:40 1021 30.15 850 25.1 -6.5 20.3 52 -14.8 5.3
01:45 1021 30.15 850 25.1 -6.5 20.4 52 -14.8 5.3
01:50 1021 30.15 850 25.1 -6.5 20.2 53 -14.7 5.6
01:55 1021 30.15 850 25.1 -6.8 19.8 53 -14.8 5.3
02:00 1021 30.15 850 25.1 -6.7 19.9 52 -15 5
02:05 1021 30.15 850 25.1 -6.2 20.8 50 -15 5
02:10 1021 30.15 850 25.1 -5.9 21.4 50 -14.8 5.4
02:15 1021 30.15 850 25.1 -5.8 21.5 49 -14.8 5.3
02:20 1021 30.15 850 25.1 -5.8 21.6 49 -14.8 5.4
02:25 1021 30.15 850 25.1 -5.8 21.6 49 -15 5.1
02:30 1021 30.15 850 25.1 -5.6 21.9 48 -14.9 5.1
02:35 1021 30.15 850 25.1 -5.6 21.9 48 -14.9 5.1
02:40 1021 30.15 850 25.1 -5.7 21.8 48 -14.9 5.1
02:45 1021 30.15 850 25.1 -5.7 21.8 49 -14.8 5.4
02:50 1021 30.15 850 25.1 -5.7 21.7 49 -14.8 5.3
02:55 1021 30.15 850 25.1 -5.7 21.7 49 -14.7 5.5
03:00 1021 30.15 850 25.1 -5.9 21.3 50 -14.7 5.5
03:05 1021 30.15 850 25.1 -6.1 21.1 52 -14.5 5.9
03:10 1021 30.15 850 25.1 -6.5 20.4 53 -14.6 5.7
03:15 1021 30.15 851 25.13 -6.4 20.4 52 -14.7 5.6
03:20 1021 30.15 851 25.13 -6.4 20.5 51 -14.9 5.2
03:25 1022 30.18 851 25.13 -6.4 20.6 51 -14.9 5.2
03:30 1022 30.18 851 25.13 -6.4 20.5 51 -15 5.1
03:35 1022 30.18 851 25.13 -6.3 20.7 49 -15.4 4.4
03:40 1022 30.18 851 25.13 -6.1 21 49 -15.1 4.7
03:45 1022 30.18 851 25.13 -6.2 20.8 50 -15.1 4.8
03:50 1022 30.18 851 25.13 -6.4 20.5 51 -14.9 5.2
03:55 1022 30.18 851 25.13 -7 19.3 53 -15 5.1
04:00 1022 30.18 851 25.13 -6.9 19.7 50 -15.5 4
04:05 1022 30.18 851 25.13 -6.5 20.4 50 -15.2 4.7
04:10 1022 30.18 851 25.13 -6.5 20.3 50 -15.2 4.7
04:15 1022 30.18 852 25.16 -6.6 20.1 53 -14.7 5.6
04:20 1022 30.18 852 25.16 -7.4 18.7 55 -14.9 5.1
04:25 1022 30.18 852 25.16 -7 19.3 52 -15.3 4.5
04:30 1023 30.21 852 25.16 -6.6 20.2 50 -15.4 4.3
04:35 1023 30.21 852 25.16 -6.2 20.8 49 -15.3 4.4
04:40 1023 30.21 852 25.16 -6.2 20.9 49 -15.2 4.6
04:45 1023 30.21 852 25.16 -6.4 20.5 50 -15.1 4.8
04:50 1023 30.21 852 25.16 -6.5 20.3 51 -15 5
04:55 1023 30.21 852 25.16 -6.6 20.2 51 -15.1 4.8
05:00 1023 30.21 852 25.16 -6.7 19.9 53 -14.8 5.3
05:05 1023 30.21 852 25.16 -7.1 19.2 55 -14.8 5.4
05:10 1023 30.21 852 25.16 -7.5 18.4 56 -14.8 5.4
05:15 1023 30.21 852 25.16 -7.8 17.9 58 -14.7 5.6
05:20 1023 30.21 852 25.16 -7.8 18 56 -15.1 4.8
05:25 1023 30.21 852 25.16 -7.6 18.4 55 -15 4.9
05:30 1023 30.21 852 25.16 -7.3 18.8 55 -15 5
05:35 1023 30.21 852 25.16 -7.1 19.2 53 -15.1 4.8
05:40 1023 30.21 852 25.16 -6.9 19.6 51 -15.4 4.3
05:45 1023 30.21 852 25.16 -6.6 20.1 49 -15.6 3.9
05:50 1023 30.21 852 25.16 -6.3 20.6 48 -15.6 4
05:55 1023 30.21 852 25.16 -6.3 20.7 48 -15.7 3.8
06:00 1023 30.21 852 25.16 -6.1 21 48 -15.4 4.3
06:05 1023 30.21 853 25.19 -6.3 20.6 48 -15.6 3.9
06:10 1023 30.21 853 25.19 -6.3 20.6 49 -15.4 4.3
06:15 1023 30.21 853 25.19 -6.6 20.2 51 -15.1 4.8
06:20 1024 30.24 853 25.19 -6.9 19.6 51 -15.5 4.1
06:25 1024 30.24 853 25.19 -6.9 19.5 51 -15.4 4.3
06:30 1024 30.24 853 25.19 -7.2 19.1 50 -15.9 3.3
06:35 1024 30.24 853 25.19 -7.2 19 51 -15.8 3.5
06:40 1024 30.24 853 25.19 -7.6 18.4 52 -15.9 3.5
06:45 1024 30.24 853 25.19 -8.1 17.5 53 -16 3.2
06:50 1024 30.24 853 25.19 -8.3 17.1 53 -16.2 2.8
06:55 1024 30.24 853 25.19 -8.1 17.4 53 -16.1 3
07:00 1024 30.24 853 25.19 -8.2 17.3 53 -16.2 2.9
07:05 1024 30.24 853 25.19 -8.1 17.5 52 -16.3 2.6
07:10 1024 30.24 853 25.19 -8 17.7 52 -16.2 2.8
07:15 1024 30.24 853 25.19 -7.8 17.9 52 -16.1 3
07:20 1024 30.24 853 25.19 -7.3 18.9 50 -16.1 2.9
07:25 1024 30.24 853 25.19 -7.2 19 50 -15.9 3.3
07:30 1024 30.24 853 25.19 -7.4 18.7 50 -16 3.1
07:35 1024 30.24 853 25.19 -7.7 18.1 53 -15.7 3.7
07:40 1024 30.24 853 25.19 -8.3 17 54 -16 3.2
07:45 1024 30.24 853 25.19 -8.3 17.1 54 -16 3.2
07:50 1024 30.24 853 25.19 -7.8 18 50 -16.4 2.5
07:55 1024 30.24 853 25.19 -7.3 18.9 48 -16.5 2.3
08:00 1024 30.24 853 25.19 -7 19.4 49 -16.2 2.9
08:05 1024 30.24 853 25.19 -7.4 18.7 52 -15.6 3.8
08:10 1024 30.24 853 25.19 -7.8 17.9 55 -15.3 4.4
08:15 1024 30.24 853 25.19 -7.6 18.3 55 -15.1 4.8
08:20 1024 30.24 853 25.19 -7.6 18.4 54 -15.5 4.2
08:25 1024 30.24 853 25.19 -8 17.7 53 -15.9 3.4
08:30 1024 30.24 853 25.19 -8.2 17.2 55 -15.7 3.7
08:35 1024 30.24 853 25.19 -8.7 16.3 56 -16 3.3
08:40 1024 30.24 853 25.19 -9 15.8 55 -16.4 2.5
08:45 1024 30.24 853 25.19 -8.4 17 52 -16.5 2.2
08:50 1024 30.24 854 25.22 -7.5 18.5 49 -16.4 2.4
08:55 1024 30.24 854 25.22 -6.9 19.6 48 -16.1 2.9
09:00 1024 30.24 854 25.22 -6.5 20.2 47 -16.1 3.1
09:05 1024 30.24 854 25.22 -5.9 21.4 46 -15.8 3.6
09:10 1025 30.27 854 25.22 -5 23 43 -15.7 3.7
09:15 1025 30.27 854 25.22 -4.4 24.1 42 -15.3 4.4
09:20 1025 30.27 854 25.22 -4.5 24 44 -15 5.1
09:25 1025 30.27 854 25.22 -5.8 21.5 49 -14.8 5.3
09:30 1025 30.27 854 25.22 -5.7 21.7 49 -14.9 5.3
09:35 1025 30.27 854 25.22 -5 23.1 44 -15.4 4.3
09:40 1025 30.27 854 25.22 -4.8 23.4 43 -15.5 4
09:45 1025 30.27 854 25.22 -5.1 22.9 44 -15.7 3.8
09:50 1025 30.27 854 25.22 -5.3 22.4 45 -15.4 4.2
09:55 1025 30.27 854 25.22 -4.6 23.7 42 -15.7 3.7
10:00 1025 30.27 854 25.22 -4.4 24 43 -15.4 4.4
10:05 1025 30.27 854 25.22 -4.5 24 41 -15.9 3.4
10:10 1025 30.27 854 25.22 -3.9 25 40 -15.6 3.9
10:15 1025 30.27 854 25.22 -3.3 26.2 38 -15.6 3.9
10:20 1025 30.27 854 25.22 -2.8 27 37 -15.5 4.1
10:25 1025 30.27 854 25.22 -3 26.6 38 -15.6 4
10:30 1025 30.27 854 25.22 -3.4 25.8 40 -15.1 4.8
10:35 1025 30.27 854 25.22 -3.4 25.8 38 -16 3.2
10:40 1025 30.27 854 25.22 -2.9 26.7 36 -16 3.1
10:45 1025 30.27 854 25.22 -2.7 27.2 36 -15.8 3.6
10:50 1025 30.27 854 25.22 -2.4 27.6 33 -16.8 1.8
10:55 1025 30.27 854 25.22 -2.5 27.6 35 -15.9 3.3
11:00 1025 30.27 854 25.22 -1.8 28.8 32 -16.5 2.3
11:05 1024 30.24 854 25.22 -1.3 29.7 31 -16.2 2.8
11:10 1024 30.24 854 25.22 -1.4 29.5 32 -16.2 2.8
11:15 1024 30.24 854 25.22 -1.2 29.8 31 -16.2 2.9
11:20 1024 30.24 854 25.22 -0.6 30.9 31 -15.7 3.7
11:25 1024 30.24 854 25.22 -0.2 31.7 30 -15.8 3.6
11:30 1024 30.24 854 25.22 -0.2 31.6 30 -15.9 3.3
11:35 1024 30.24 854 25.22 0.1 32.2 29 -16.1 3
11:40 1024 30.24 854 25.22 0.1 32.2 28 -16.4 2.4
11:45 1024 30.24 854 25.22 -0.1 31.7 29 -16 3.1
11:50 1024 30.24 853 25.19 -0.3 31.4 31 -15.7 3.8
11:55 1024 30.24 853 25.19 -0.2 31.6 29 -16.2 2.8
12:00 1024 30.24 853 25.19 -0.2 31.6 29 -16.3 2.7
12:05 1024 30.24 853 25.19 -0.2 31.7 30 -16 3.3
12:10 1024 30.24 853 25.19 0.4 32.7 28 -16.1 3
12:15 1024 30.24 853 25.19 -0.2 31.6 30 -15.9 3.3
12:20 1024 30.24 853 25.19 -0.3 31.5 30 -16 3.1
12:25 1024 30.24 853 25.19 -0.2 31.7 30 -15.8 3.5
12:30 1024 30.24 853 25.19 -0.1 31.7 30 -15.9 3.3
12:35 1024 30.24 853 25.19 0 32 29 -15.9 3.3
12:40 1024 30.24 853 25.19 0.3 32.6 29 -15.6 4
12:45 1024 30.24 853 25.19 0.4 32.8 29 -15.7 3.8
12:50 1024 30.24 853 25.19 0.6 33 27 -16.2 2.8
12:55 1024 30.24 853 25.19 0.5 32.9 27 -16.4 2.4
13:00 1024 30.24 853 25.19 -0 31.9 29 -16.1 3
13:05 1024 30.24 853 25.19 0.3 32.6 29 -15.9 3.3
13:10 1024 30.24 853 25.19 0.6 33.2 27 -16.5 2.3
13:15 1024 30.24 853 25.19 0.1 32.2 29 -16.1 2.9
13:20 1024 30.24 853 25.19 -0.2 31.6 30 -15.9 3.4
13:25 1024 30.24 853 25.19 -0.3 31.5 30 -15.7 3.7
13:30 1024 30.24 853 25.19 -0 31.9 30 -15.5 4.1
13:35 1024 30.24 853 25.19 0.2 32.4 30 -15.5 4.2
13:40 1024 30.24 853 25.19 0.8 33.4 29 -15.6 4
13:45 1024 30.24 853 25.19 1 33.8 28 -15.8 3.6
13:50 1024 30.24 853 25.19 0.7 33.2 27 -16.5 2.3
13:55 1023 30.21 853 25.19 0.6 33.1 27 -16.4 2.5
14:00 1023 30.21 853 25.19 0.4 32.8 27 -16.6 2.2
14:05 1023 30.21 853 25.19 0.3 32.6 27 -16.6 2.1
14:10 1023 30.21 853 25.19 0.6 33.1 28 -15.9 3.4
14:15 1023 30.21 852 25.16 0.6 33.1 31 -14.6 5.7
14:20 1023 30.21 852 25.16 -0.1 31.9 31 -15.5 4.2
14:25 1023 30.21 852 25.16 -0.6 31 32 -15.3 4.5
14:30 1023 30.21 852 25.16 -0.6 31 32 -15.2 4.6
14:35 1023 30.21 852 25.16 -0.4 31.3 29 -16.4 2.5
14:40 1023 30.21 852 25.16 -0.5 31.1 30 -16 3.1
14:45 1023 30.21 852 25.16 -0.6 30.9 30 -16.1 3
14:50 1023 30.21 852 25.16 -0.7 30.7 33 -14.9 5.2
14:55 1023 30.21 852 25.16 -1.5 29.3 36 -14.7 5.6
15:00 1023 30.21 852 25.16 -2.1 28.1 37 -14.9 5.2
15:05 1023 30.21 852 25.16 -1.6 29.1 34 -15.6 3.9
15:10 1023 30.21 852 25.16 -1.3 29.6 37 -14.3 6.2
15:15 1023 30.21 852 25.16 -1.7 28.9 38 -14.2 6.4
15:20 1023 30.21 852 25.16 -2.1 28.3 38 -14.4 6
15:25 1023 30.21 852 25.16 -2.1 28.2 39 -14.3 6.3
15:30 1023 30.21 852 25.16 -2.1 28.2 38 -14.7 5.6
15:35 1023 30.21 852 25.16 -2.2 28 39 -14.3 6.3
15:40 1023 30.21 852 25.16 -2.4 27.7 40 -14.1 6.6
15:45 1023 30.21 852 25.16 -2.5 27.5 41 -14 6.8
15:50 1023 30.21 852 25.16 -2.5 27.4 42 -13.9 7
15:55 1023 30.21 852 25.16 -2.5 27.5 39 -14.5 5.9
16:00 1023 30.21 852 25.16 -2.7 27.2 39 -14.7 5.6
16:05 1023 30.21 852 25.16 -2.8 27 42 -14.1 6.7
16:10 1023 30.21 852 25.16 -2.8 26.9 40 -14.7 5.5
16:15 1023 30.21 852 25.16 -2.7 27.1 42 -14 6.8
16:20 1023 30.21 852 25.16 -2.6 27.3 38 -15.2 4.6
16:25 1023 30.21 852 25.16 -2.4 27.6 41 -14.1 6.6
16:30 1022 30.18 852 25.16 -2.5 27.5 39 -14.8 5.4
16:35 1023 30.21 852 25.16 -2.6 27.3 40 -14.3 6.2
16:40 1022 30.18 852 25.16 -2.6 27.3 38 -15.2 4.6
16:45 1022 30.18 852 25.16 -2.5 27.6 38 -14.9 5.3
16:50 1022 30.18 852 25.16 -2.4 27.6 40 -14.3 6.3
16:55 1022 30.18 852 25.16 -2.4 27.7 41 -14 6.7
17:00 1023 30.21 852 25.16 -2.4 27.6 41 -13.8 7.1
17:05 1022 30.18 852 25.16 -2.4 27.7 40 -14.2 6.5
17:10 1022 30.18 852 25.16 -2.5 27.5 39 -14.6 5.7
17:15 1022 30.18 852 25.16 -2.6 27.4 39 -14.8 5.4
17:20 1022 30.18 852 25.16 -2.6 27.4 39 -14.7 5.6
17:25 1022 30.18 852 25.16 -2.3 27.8 39 -14.6 5.8
17:30 1022 30.18 851 25.13 -2.3 27.9 42 -13.5 7.8
17:35 1022 30.18 852 25.16 -2.4 27.7 36 -15.4 4.2
17:40 1022 30.18 852 25.16 -2 28.4 35 -15.5 4
17:45 1022 30.18 852 25.16 -1.9 28.5 36 -15.1 4.8
17:50 1022 30.18 852 25.16 -1.9 28.5 36 -15.3 4.5
17:55 1022 30.18 852 25.16 -1.9 28.7 35 -15.5 4.1
18:00 1022 30.18 852 25.16 -1.8 28.7 34 -15.6 3.9
18:05 1022 30.18 851 25.13 -1.7 29 32 -16.1 2.9
18:10 1022 30.18 852 25.16 -1.5 29.3 32 -16.1 3.1
18:15 1022 30.18 852 25.16 -1.4 29.4 32 -16.2 2.9
18:20 1022 30.18 852 25.16 -1.4 29.4 32 -16 3.2
18:25 1022 30.18 852 25.16 -1.5 29.4 32 -16.1 3.1
18:30 1022 30.18 852 25.16 -1.6 29.2 33 -15.8 3.6
18:35 1022 30.18 852 25.16 -1.6 29 34 -15.6 3.9
18:40 1022 30.18 852 25.16 -1.7 28.9 33 -15.9 3.5
18:45 1022 30.18 852 25.16 -1.9 28.7 35 -15.3 4.4
18:50 1022 30.18 852 25.16 -2 28.4 36 -15.2 4.6
18:55 1022 30.18 851 25.13 -2.1 28.2 37 -14.9 5.1
19:00 1022 30.18 851 25.13 -2.2 28 36 -15.3 4.5
19:05 1022 30.18 851 25.13 -2.2 28 37 -15.1 4.8
19:10 1022 30.18 851 25.13 -2.3 27.8 37 -15.3 4.5
19:15 1022 30.18 851 25.13 -2.3 27.8 37 -15.1 4.8
19:20 1022 30.18 851 25.13 -2.3 27.9 37 -15.2 4.6
19:25 1022 30.18 851 25.13 -2.2 28 34 -16 3.2
19:30 1022 30.18 851 25.13 -1.9 28.6 34 -15.8 3.6
19:35 1022 30.18 851 25.13 -1.7 28.9 34 -15.8 3.6
19:40 1022 30.18 852 25.16 -1.7 28.9 36 -15.1 4.8
19:45 1022 30.18 852 25.16 -1.8 28.8 37 -14.8 5.3
19:50 1022 30.18 852 25.16 -1.8 28.7 37 -14.6 5.7
19:55 1023 30.21 852 25.16 -1.9 28.6 38 -14.4 6
20:00 1023 30.21 852 25.16 -1.9 28.5 40 -13.9 7
20:05 1023 30.21 852 25.16 -2 28.3 40 -14 6.8
20:10 1023 30.21 852 25.16 -2.1 28.3 41 -13.7 7.4
20:15 1023 30.21 852 25.16 -2.1 28.3 40 -14 6.9
20:20 1023 30.21 852 25.16 -2.1 28.2 41 -13.8 7.1
20:25 1023 30.21 852 25.16 -2.2 28 41 -13.8 7.2
20:30 1023 30.21 852 25.16 -2.3 27.9 41 -13.8 7.2
20:35 1022 30.18 852 25.16 -2.3 27.8 40 -14.1 6.7
20:40 1022 30.18 852 25.16 -2.2 28 40 -14.1 6.7
20:45 1022 30.18 852 25.16 -2.1 28.2 39 -14.3 6.3
20:50 1022 30.18 852 25.16 -2.2 28.1 39 -14.5 5.9
20:55 1022 30.18 852 25.16 -2.2 28 40 -14.2 6.5
21:00 1022 30.18 852 25.16 -2.3 27.9 39 -14.3 6.2
21:05 1022 30.18 852 25.16 -2.2 28 40 -14 6.8
21:10 1022 30.18 852 25.16 -2.3 27.9 41 -13.9 6.9
21:15 1022 30.18 852 25.16 -2.2 28 40 -14.3 6.3
21:20 1022 30.18 852 25.16 -2.2 28.1 39 -14.3 6.3
21:25 1022 30.18 852 25.16 -2.1 28.2 39 -14.4 6.1
21:30 1022 30.18 852 25.16 -2.1 28.3 39 -14.2 6.5
21:35 1022 30.18 852 25.16 -2.1 28.2 40 -14.1 6.7
21:40 1023 30.21 852 25.16 -2.1 28.2 40 -14.1 6.7
21:45 1023 30.21 852 25.16 -2.2 28 40 -14 6.9
21:50 1023 30.21 852 25.16 -2.2 28 41 -13.9 6.9
21:55 1023 30.21 852 25.16 -2.2 28 41 -14 6.9
22:00 1023 30.21 852 25.16 -2.2 28 40 -14.1 6.7
22:05 1023 30.21 852 25.16 -2.2 28.1 40 -13.9 7
22:10 1023 30.21 852 25.16 -2.2 28.1 41 -13.7 7.4
22:15 1023 30.21 852 25.16 -2.2 28.1 42 -13.6 7.6
22:20 1023 30.21 852 25.16 -2.2 28.1 41 -13.8 7.1
22:25 1023 30.21 852 25.16 -2 28.5 40 -13.7 7.3
22:30 1023 30.21 852 25.16 -1.9 28.6 40 -13.7 7.3
22:35 1023 30.21 852 25.16 -1.8 28.8 40 -13.7 7.3
22:40 1023 30.21 852 25.16 -1.8 28.8 40 -13.6 7.4
22:45 1023 30.21 852 25.16 -1.7 29 40 -13.5 7.6
22:50 1023 30.21 852 25.16 -1.6 29.2 40 -13.4 7.8
22:55 1023 30.21 852 25.16 -1.5 29.4 40 -13.5 7.6
23:00 1023 30.21 852 25.16 -1.2 29.8 39 -13.5 7.8
23:05 1023 30.21 852 25.16 -1 30.1 41 -12.8 8.9
23:10 1023 30.21 852 25.16 -1.4 29.5 44 -12.2 10
23:15 1023 30.21 852 25.16 -1.4 29.5 43 -12.4 9.6
23:20 1023 30.21 852 25.16 -1.1 29.9 42 -12.5 9.6
23:25 1023 30.21 852 25.16 -1 30.2 42 -12.2 10
23:30 1023 30.21 852 25.16 -0.9 30.4 42 -12.2 10
23:35 1023 30.21 852 25.16 -0.9 30.4 42 -12.3 9.9
23:40 1022 30.18 852 25.16 -0.8 30.5 42 -12.3 9.8
23:45 1022 30.18 852 25.16 -0.8 30.5 43 -12 10.4
23:50 1022 30.18 852 25.16 -1 30.3 43 -12 10.5
23:55 1022 30.18 852 25.16 -1 30.2 44 -11.7 11
24:00 1022 30.18 852 25.16 -0.8 30.5 44 -11.6 11.2